createdAt,value
2022-09-10T00:02:07.309Z,14.90
2022-09-10T00:04:34.162Z,14.90
2022-09-10T00:07:01.131Z,14.90
2022-09-10T00:09:27.970Z,14.90
2022-09-10T00:11:54.794Z,14.90
2022-09-10T00:14:23.440Z,14.90
2022-09-10T00:16:50.821Z,14.80
2022-09-10T00:19:17.804Z,14.80
2022-09-10T00:21:45.144Z,14.80
2022-09-10T00:24:12.415Z,14.80
2022-09-10T00:26:39.856Z,14.80
2022-09-10T00:29:09.276Z,14.80
2022-09-10T00:31:37.332Z,14.80
2022-09-10T00:34:05.969Z,14.80
2022-09-10T00:36:36.870Z,14.80
2022-09-10T00:39:07.665Z,14.80
2022-09-10T00:41:36.760Z,14.90
2022-09-10T00:44:05.240Z,14.80
2022-09-10T00:46:47.382Z,14.80
2022-09-10T00:49:36.433Z,14.90
2022-09-10T00:52:05.063Z,14.80
2022-09-10T00:54:35.767Z,14.90
2022-09-10T00:57:13.602Z,14.90
2022-09-10T00:59:46.520Z,14.90
2022-09-10T01:02:14.191Z,14.90
2022-09-10T01:04:41.872Z,15.00
2022-09-10T01:07:10.791Z,14.90
2022-09-10T01:09:39.142Z,15.00
2022-09-10T01:12:24.175Z,14.90
2022-09-10T01:14:58.006Z,14.90
2022-09-10T01:17:38.246Z,15.00
2022-09-10T01:20:11.433Z,15.00
2022-09-10T01:23:17.576Z,15.00
2022-09-10T01:26:03.395Z,15.00
2022-09-10T01:28:41.046Z,15.00
2022-09-10T01:31:25.872Z,15.10
2022-09-10T01:34:02.247Z,15.10
2022-09-10T01:36:34.572Z,15.10
2022-09-10T01:39:02.686Z,15.00
2022-09-10T01:41:29.783Z,15.00
2022-09-10T01:43:58.469Z,15.00
2022-09-10T01:46:44.838Z,15.00
2022-09-10T01:49:30.984Z,15.00
2022-09-10T01:52:26.348Z,15.00
2022-09-10T01:55:08.999Z,15.00
2022-09-10T01:58:13.349Z,15.00
2022-09-10T02:00:54.435Z,15.00
2022-09-10T02:03:24.685Z,15.10
2022-09-10T02:05:54.967Z,15.10
2022-09-10T02:08:27.788Z,15.10
2022-09-10T02:11:00.519Z,15.20
2022-09-10T02:13:31.424Z,15.10
2022-09-10T02:16:33.256Z,15.10
2022-09-10T02:19:01.831Z,15.20
2022-09-10T02:21:32.029Z,15.10
2022-09-10T02:24:05.770Z,15.10
2022-09-10T02:26:39.560Z,15.10
2022-09-10T02:29:07.918Z,15.10
2022-09-10T02:31:34.755Z,15.10
2022-09-10T02:34:03.529Z,15.10
2022-09-10T02:36:31.942Z,15.10
2022-09-10T02:39:00.343Z,15.10
2022-09-10T02:41:30.199Z,15.00
2022-09-10T02:43:57.606Z,15.00
2022-09-10T02:46:24.983Z,15.00
2022-09-10T02:48:55.097Z,15.00
2022-09-10T02:51:24.354Z,15.00
2022-09-10T02:53:51.767Z,15.00
2022-09-10T02:56:19.772Z,14.90
2022-09-10T02:58:46.734Z,14.90
2022-09-10T03:01:18.232Z,14.90
2022-09-10T03:03:55.303Z,14.80
2022-09-10T03:06:23.940Z,14.80
2022-09-10T03:08:55.275Z,14.70
2022-09-10T03:11:25.362Z,14.70
2022-09-10T03:13:52.363Z,14.70
2022-09-10T03:16:19.520Z,14.70
2022-09-10T03:18:46.538Z,14.70
2022-09-10T03:21:18.356Z,14.70
2022-09-10T03:23:47.009Z,14.70
2022-09-10T03:26:15.827Z,14.70
2022-09-10T03:28:43.792Z,14.70
2022-09-10T03:31:14.412Z,14.70
2022-09-10T03:33:46.242Z,14.70
2022-09-10T03:36:13.872Z,14.80
2022-09-10T03:38:42.650Z,14.90
2022-09-10T03:41:10.060Z,14.80
2022-09-10T03:43:38.004Z,14.80
2022-09-10T03:46:08.558Z,14.80
2022-09-10T03:48:39.525Z,14.70
2022-09-10T03:51:08.051Z,14.60
2022-09-10T03:53:35.075Z,14.60
2022-09-10T03:56:03.456Z,14.50
2022-09-10T03:58:32.379Z,14.50
2022-09-10T04:00:59.255Z,14.50
2022-09-10T04:03:26.103Z,14.50
2022-09-10T04:05:53.079Z,14.50
2022-09-10T04:08:20.600Z,14.60
2022-09-10T04:10:48.319Z,14.60
2022-09-10T04:13:16.184Z,14.70
2022-09-10T04:15:47.287Z,14.70
2022-09-10T04:18:14.754Z,14.70
2022-09-10T04:20:43.575Z,14.70
2022-09-10T04:23:10.829Z,14.70
2022-09-10T04:25:39.935Z,14.70
2022-09-10T04:28:07.407Z,14.70
2022-09-10T04:30:34.346Z,14.60
2022-09-10T04:33:01.455Z,14.50
2022-09-10T04:35:31.922Z,14.40
2022-09-10T04:38:00.839Z,14.40
2022-09-10T04:40:27.758Z,14.40
2022-09-10T04:42:55.656Z,14.40
2022-09-10T04:45:22.519Z,14.30
2022-09-10T04:47:49.743Z,14.30
2022-09-10T04:50:16.686Z,14.20
2022-09-10T04:53:03.471Z,14.20
2022-09-10T04:55:31.793Z,14.10
2022-09-10T04:57:59.651Z,14.10
2022-09-10T05:00:27.110Z,14.00
2022-09-10T05:02:54.618Z,14.10
2022-09-10T05:05:21.583Z,14.00
2022-09-10T05:07:49.108Z,14.00
2022-09-10T05:10:16.279Z,14.00
2022-09-10T05:12:43.876Z,14.00
2022-09-10T05:15:11.817Z,14.00
2022-09-10T05:17:38.682Z,14.10
2022-09-10T05:20:07.687Z,14.00
2022-09-10T05:22:40.749Z,14.10
2022-09-10T05:25:09.021Z,14.10
2022-09-10T05:27:36.720Z,14.10
2022-09-10T05:30:07.046Z,14.20
2022-09-10T05:32:35.524Z,14.20
2022-09-10T05:35:05.300Z,14.30
2022-09-10T05:37:36.527Z,14.30
2022-09-10T05:40:06.101Z,14.40
2022-09-10T05:42:33.421Z,14.40
2022-09-10T05:45:00.256Z,14.50
2022-09-10T05:47:28.262Z,14.50
2022-09-10T05:49:56.493Z,14.60
2022-09-10T05:52:24.467Z,14.60
2022-09-10T05:54:52.237Z,14.70
2022-09-10T05:57:20.090Z,14.80
2022-09-10T05:59:46.928Z,14.90
2022-09-10T06:02:21.809Z,14.90
2022-09-10T06:04:50.916Z,14.90
2022-09-10T06:07:18.107Z,14.90
2022-09-10T06:09:44.912Z,14.90
2022-09-10T06:12:21.381Z,14.90
2022-09-10T06:14:49.079Z,14.90
2022-09-10T06:17:19.420Z,14.90
2022-09-10T06:19:47.984Z,15.00
2022-09-10T06:22:18.001Z,15.00
2022-09-10T06:24:49.117Z,15.00
2022-09-10T06:27:17.291Z,15.20
2022-09-10T06:29:44.200Z,15.20
2022-09-10T06:32:11.895Z,15.20
2022-09-10T06:34:38.919Z,15.20
2022-09-10T06:37:07.459Z,15.40
2022-09-10T06:39:37.099Z,15.60
2022-09-10T06:42:05.748Z,15.80
2022-09-10T06:45:00.156Z,15.90
2022-09-10T06:50:59.371Z,16.00
2022-09-10T06:53:33.626Z,16.10
2022-09-10T06:56:03.044Z,16.10
2022-09-10T06:58:35.725Z,16.00
2022-09-10T07:01:13.548Z,15.90
2022-09-10T07:03:43.509Z,15.80
2022-09-10T07:06:13.398Z,15.70
2022-09-10T07:08:41.202Z,15.70
2022-09-10T07:11:15.878Z,15.70
2022-09-10T07:13:44.129Z,15.80
2022-09-10T07:16:11.109Z,15.90
2022-09-10T07:18:38.007Z,15.90
2022-09-10T07:21:13.185Z,15.90
2022-09-10T07:23:45.246Z,15.90
2022-09-10T07:26:15.102Z,15.90
2022-09-10T07:28:48.716Z,15.90
2022-09-10T07:31:28.833Z,15.90
2022-09-10T07:33:58.248Z,16.00
2022-09-10T07:36:25.634Z,16.20
2022-09-10T07:38:54.320Z,16.30
2022-09-10T07:41:21.856Z,16.70
2022-09-10T07:43:53.460Z,16.90
2022-09-10T07:46:22.375Z,17.10
2022-09-10T07:48:56.841Z,17.30
2022-09-10T07:51:25.334Z,17.40
2022-09-10T07:53:55.233Z,17.60
2022-09-10T07:56:23.545Z,17.70
2022-09-10T07:58:51.635Z,17.60
2022-09-10T08:01:19.997Z,17.50
2022-09-10T08:03:47.285Z,17.70
2022-09-10T08:06:18.413Z,17.90
2022-09-10T08:08:46.213Z,18.00
2022-09-10T08:11:17.856Z,18.10
2022-09-10T08:13:50.062Z,18.20
2022-09-10T08:16:24.224Z,18.40
2022-09-10T08:18:58.476Z,18.60
2022-09-10T08:21:26.797Z,18.60
2022-09-10T08:23:54.844Z,18.70
2022-09-10T08:26:24.393Z,19.00
2022-09-10T08:28:54.034Z,19.00
2022-09-10T08:31:22.192Z,18.90
2022-09-10T08:33:56.856Z,18.70
2022-09-10T08:36:25.706Z,18.50
2022-09-10T08:38:59.787Z,18.20
2022-09-10T08:41:39.639Z,18.10
2022-09-10T08:44:31.310Z,17.70
2022-09-10T08:47:21.008Z,17.20
2022-09-10T08:49:51.835Z,17.00
2022-09-10T08:52:31.215Z,16.70
2022-09-10T08:55:02.161Z,16.60
2022-09-10T08:57:35.135Z,16.60
2022-09-10T09:00:03.923Z,16.60
2022-09-10T09:02:56.972Z,16.40
2022-09-10T09:05:28.907Z,16.20
2022-09-10T09:08:01.503Z,16.30
2022-09-10T09:10:47.188Z,16.30
2022-09-10T09:13:32.219Z,16.50
2022-09-10T09:16:13.242Z,16.60
2022-09-10T09:19:03.488Z,16.70
2022-09-10T09:21:48.531Z,17.00
2022-09-10T09:24:39.664Z,17.40
2022-09-10T09:27:16.217Z,17.90
2022-09-10T09:29:46.762Z,18.40
2022-09-10T09:32:17.857Z,18.80
2022-09-10T09:34:57.289Z,19.00
2022-09-10T09:37:29.451Z,18.90
2022-09-10T09:40:27.310Z,18.80
2022-09-10T09:43:04.553Z,19.10
2022-09-10T09:45:37.459Z,19.60
2022-09-10T09:48:12.691Z,20.00
2022-09-10T09:50:46.323Z,20.00
2022-09-10T09:53:19.504Z,19.80
2022-09-10T09:55:51.596Z,19.80
2022-09-10T09:58:24.322Z,19.70
2022-09-10T10:01:04.036Z,19.70
2022-09-10T10:03:35.637Z,19.90
2022-09-10T10:06:08.584Z,20.10
2022-09-10T10:08:41.385Z,19.80
2022-09-10T10:11:09.673Z,20.00
2022-09-10T10:13:42.591Z,20.10
2022-09-10T10:16:31.094Z,20.30
2022-09-10T10:18:57.874Z,20.90
2022-09-10T10:21:36.841Z,21.30
2022-09-10T10:24:04.121Z,21.30
2022-09-10T10:26:33.155Z,21.00
2022-09-10T10:29:17.062Z,20.80
2022-09-10T10:31:47.102Z,20.50
2022-09-10T10:34:53.983Z,20.10
2022-09-10T10:37:51.092Z,19.80
2022-09-10T10:40:33.760Z,19.60
2022-09-10T10:43:39.362Z,19.50
2022-09-10T10:46:30.362Z,19.40
2022-09-10T10:49:53.334Z,19.50
2022-09-10T10:52:29.430Z,19.30
2022-09-10T10:55:18.208Z,19.20
2022-09-10T10:58:08.375Z,19.20
2022-09-10T11:00:49.987Z,19.20
2022-09-10T11:03:48.799Z,19.50
2022-09-10T11:06:23.393Z,20.10
2022-09-10T11:09:13.240Z,20.70
2022-09-10T11:12:01.344Z,21.30
2022-09-10T11:14:40.817Z,21.70
2022-09-10T11:17:22.574Z,22.20
2022-09-10T11:20:11.253Z,22.80
2022-09-10T11:23:20.434Z,22.90
2022-09-10T11:26:01.168Z,23.30
2022-09-10T11:28:37.431Z,23.60
2022-09-10T11:31:30.972Z,23.50
2022-09-10T11:34:00.799Z,23.50
2022-09-10T11:36:47.130Z,23.10
2022-09-10T11:39:25.330Z,22.80
2022-09-10T11:41:54.906Z,22.60
2022-09-10T11:44:55.999Z,22.60
2022-09-10T11:47:29.844Z,22.40
2022-09-10T11:50:10.291Z,22.10
2022-09-10T11:52:38.190Z,22.30
2022-09-10T11:55:08.539Z,22.50
2022-09-10T11:58:11.637Z,22.70
2022-09-10T12:00:54.445Z,23.20
2022-09-10T12:03:21.236Z,23.30
2022-09-10T12:06:05.522Z,23.30
2022-09-10T12:09:13.566Z,22.60
2022-09-10T12:11:47.302Z,22.10
2022-09-10T12:14:19.131Z,22.10
2022-09-10T12:16:54.836Z,22.10
2022-09-10T12:19:26.444Z,22.20
2022-09-10T12:22:01.247Z,22.30
2022-09-10T12:24:30.957Z,22.60
2022-09-10T12:26:59.891Z,23.10
2022-09-10T12:29:38.223Z,23.10
2022-09-10T12:32:08.054Z,22.70
2022-09-10T12:34:36.233Z,22.10
2022-09-10T12:37:02.993Z,22.30
2022-09-10T12:39:31.039Z,22.20
2022-09-10T12:41:59.183Z,21.80
2022-09-10T12:44:36.336Z,21.60
2022-09-10T12:47:15.106Z,21.30
2022-09-10T12:49:51.165Z,21.10
2022-09-10T12:52:43.830Z,21.00
2022-09-10T12:55:52.994Z,20.70
2022-09-10T12:58:34.961Z,20.40
2022-09-10T13:01:39.091Z,20.20
2022-09-10T13:04:17.692Z,20.00
2022-09-10T13:06:44.851Z,19.90
2022-09-10T13:09:22.641Z,19.80
2022-09-10T13:11:54.288Z,19.80
2022-09-10T13:14:30.511Z,19.80
2022-09-10T13:16:57.374Z,19.70
2022-09-10T13:19:24.234Z,19.70
2022-09-10T13:21:53.917Z,19.60
2022-09-10T13:25:00.055Z,19.30
2022-09-10T13:27:40.605Z,19.00
2022-09-10T13:30:19.673Z,18.70
2022-09-10T13:33:07.575Z,18.40
2022-09-10T13:36:22.647Z,18.40
2022-09-10T13:39:03.121Z,18.40
2022-09-10T13:42:04.561Z,18.40
2022-09-10T13:44:34.083Z,18.40
2022-09-10T13:47:09.303Z,18.40
2022-09-10T13:49:47.425Z,18.40
2022-09-10T13:52:17.464Z,18.40
2022-09-10T13:54:54.988Z,18.50
2022-09-10T13:57:24.947Z,18.60
2022-09-10T13:59:57.594Z,18.60
2022-09-10T14:02:47.563Z,18.60
2022-09-10T14:05:47.039Z,18.80
2022-09-10T14:08:35.729Z,19.20
2022-09-10T14:11:29.957Z,19.40
2022-09-10T14:14:25.502Z,19.80
2022-09-10T14:16:58.549Z,20.20
2022-09-10T14:19:29.559Z,20.70
2022-09-10T14:21:57.847Z,21.00
2022-09-10T14:24:53.580Z,21.00
2022-09-10T14:27:39.049Z,20.90
2022-09-10T14:30:24.270Z,20.90
2022-09-10T14:32:52.294Z,20.90
2022-09-10T14:35:38.182Z,20.80
2022-09-10T14:38:24.569Z,20.60
2022-09-10T14:40:58.385Z,20.40
2022-09-10T14:43:31.878Z,20.50
2022-09-10T14:45:59.104Z,20.40
2022-09-10T14:48:38.541Z,20.40
2022-09-10T14:51:15.822Z,20.40
2022-09-10T14:53:44.860Z,20.50
2022-09-10T14:56:22.759Z,20.60
2022-09-10T14:58:56.946Z,20.50
2022-09-10T15:01:24.454Z,20.30
2022-09-10T15:03:51.542Z,20.30
2022-09-10T15:06:21.929Z,20.20
2022-09-10T15:08:52.758Z,20.10
2022-09-10T15:11:23.306Z,20.00
2022-09-10T15:13:51.195Z,20.00
2022-09-10T15:16:18.415Z,20.00
2022-09-10T15:18:45.285Z,20.10
2022-09-10T15:21:15.123Z,20.20
2022-09-10T15:23:42.587Z,20.10
2022-09-10T15:26:13.764Z,20.10
2022-09-10T15:28:41.533Z,20.20
2022-09-10T15:31:09.166Z,20.30
2022-09-10T15:33:36.250Z,20.30
2022-09-10T15:36:03.714Z,20.30
2022-09-10T15:38:31.453Z,20.20
2022-09-10T15:41:08.916Z,20.20
2022-09-10T15:43:42.780Z,20.30
2022-09-10T15:46:11.557Z,20.30
2022-09-10T15:48:38.520Z,20.40
2022-09-10T15:51:11.109Z,20.50
2022-09-10T15:53:39.723Z,20.40
2022-09-10T15:56:08.165Z,20.40
2022-09-10T15:58:35.757Z,20.40
2022-09-10T16:01:15.144Z,20.50
2022-09-10T16:03:56.761Z,20.50
2022-09-10T16:06:27.364Z,20.60
2022-09-10T16:09:01.991Z,20.60
2022-09-10T16:11:33.761Z,20.50
2022-09-10T16:14:05.089Z,20.50
2022-09-10T16:16:32.778Z,20.50
2022-09-10T16:19:00.757Z,20.60
2022-09-10T16:21:33.667Z,20.50
2022-09-10T16:24:01.295Z,20.40
2022-09-10T16:26:37.664Z,20.40
2022-09-10T16:29:25.967Z,20.40
2022-09-10T16:31:53.573Z,20.40
2022-09-10T16:34:22.110Z,20.40
2022-09-10T16:36:49.309Z,20.30
2022-09-10T16:39:18.161Z,20.30
2022-09-10T16:41:47.782Z,20.40
2022-09-10T16:44:16.157Z,20.50
2022-09-10T16:46:43.640Z,20.70
2022-09-10T16:49:15.200Z,20.60
2022-09-10T16:51:43.687Z,20.50
2022-09-10T16:54:13.555Z,20.30
2022-09-10T16:56:43.036Z,20.10
2022-09-10T16:59:21.559Z,20.00
2022-09-10T17:01:49.849Z,19.80
2022-09-10T17:04:27.538Z,19.70
2022-09-10T17:06:56.998Z,19.60
2022-09-10T17:09:24.890Z,19.50
2022-09-10T17:11:52.209Z,19.40
2022-09-10T17:14:19.385Z,19.20
2022-09-10T17:16:48.003Z,19.20
2022-09-10T17:19:23.315Z,19.10
2022-09-10T17:21:53.041Z,19.10
2022-09-10T17:24:22.610Z,19.00
2022-09-10T17:26:50.023Z,19.00
2022-09-10T17:29:19.321Z,18.90
2022-09-10T17:31:46.667Z,18.80
2022-09-10T17:34:15.334Z,18.70
2022-09-10T17:36:46.963Z,18.60
2022-09-10T17:39:14.735Z,18.50
2022-09-10T17:41:42.578Z,18.30
2022-09-10T17:44:11.299Z,18.30
2022-09-10T17:46:38.302Z,18.20
2022-09-10T17:49:05.610Z,18.10
2022-09-10T17:51:34.108Z,18.00
2022-09-10T17:54:02.949Z,17.90
2022-09-10T17:56:29.912Z,17.80
2022-09-10T17:59:01.734Z,17.70
2022-09-10T18:01:33.657Z,17.70
2022-09-10T18:04:00.748Z,17.60
2022-09-10T18:06:29.249Z,17.50
2022-09-10T18:09:00.745Z,17.50
2022-09-10T18:11:31.339Z,17.40
2022-09-10T18:13:59.410Z,17.30
2022-09-10T18:16:28.597Z,17.30
2022-09-10T18:18:59.984Z,17.30
2022-09-10T18:21:28.203Z,17.20
2022-09-10T18:23:56.498Z,17.20
2022-09-10T18:26:25.932Z,17.10
2022-09-10T18:29:03.979Z,17.10
2022-09-10T18:31:34.883Z,17.10
2022-09-10T18:34:02.563Z,17.10
2022-09-10T18:36:31.384Z,17.00
2022-09-10T18:39:02.174Z,17.00
2022-09-10T18:41:33.880Z,17.00
2022-09-10T18:44:04.037Z,17.00
2022-09-10T18:46:32.645Z,16.90
2022-09-10T18:49:00.264Z,16.90
2022-09-10T18:51:28.911Z,16.90
2022-09-10T18:53:58.361Z,16.80
2022-09-10T18:56:30.719Z,16.80
2022-09-10T18:59:00.917Z,16.80
2022-09-10T19:01:29.592Z,16.80
2022-09-10T19:03:57.579Z,16.70
2022-09-10T19:06:27.605Z,16.70
2022-09-10T19:09:00.638Z,16.60
2022-09-10T19:11:33.120Z,16.50
2022-09-10T19:14:01.831Z,16.50
2022-09-10T19:16:31.427Z,16.40
2022-09-10T19:19:00.470Z,16.40
2022-09-10T19:21:29.260Z,16.30
2022-09-10T19:23:59.476Z,16.30
2022-09-10T19:26:27.364Z,16.20
2022-09-10T19:28:57.348Z,16.20
2022-09-10T19:31:25.534Z,16.20
2022-09-10T19:33:57.202Z,16.10
2022-09-10T19:36:27.496Z,16.10
2022-09-10T19:38:54.874Z,16.10
2022-09-10T19:41:22.494Z,16.00
2022-09-10T19:43:51.715Z,16.00
2022-09-10T19:46:20.786Z,16.10
2022-09-10T19:48:48.154Z,16.10
2022-09-10T19:51:17.365Z,16.10
2022-09-10T19:53:44.211Z,16.00
2022-09-10T19:56:20.275Z,16.10
2022-09-10T19:58:52.270Z,16.10
2022-09-10T20:01:22.166Z,16.10
2022-09-10T20:03:50.718Z,16.00
2022-09-10T20:06:19.535Z,16.00
2022-09-10T20:08:50.240Z,15.90
2022-09-10T20:11:20.908Z,15.80
2022-09-10T20:13:47.959Z,15.70
2022-09-10T20:16:16.310Z,15.70
2022-09-10T20:18:43.173Z,15.70
2022-09-10T20:21:17.809Z,15.70
2022-09-10T20:23:47.042Z,15.60
2022-09-10T20:26:15.890Z,15.70
2022-09-10T20:28:43.598Z,15.70
2022-09-10T20:31:13.010Z,15.70
2022-09-10T20:33:42.319Z,15.80
2022-09-10T20:36:12.836Z,15.80
2022-09-10T20:38:40.133Z,15.90
2022-09-10T20:41:07.873Z,15.90
2022-09-10T20:43:34.834Z,15.90
2022-09-10T20:46:02.334Z,15.80
2022-09-10T20:48:30.873Z,15.80
2022-09-10T20:50:59.668Z,15.70
2022-09-10T20:53:27.719Z,15.60
2022-09-10T20:56:04.650Z,15.60
2022-09-10T20:58:34.111Z,15.60
2022-09-10T21:01:15.075Z,15.70
2022-09-10T21:03:42.120Z,15.50
2022-09-10T21:06:10.609Z,15.40
2022-09-10T21:08:39.076Z,15.40
2022-09-10T21:11:08.551Z,15.40
2022-09-10T21:13:37.419Z,15.40
2022-09-10T21:16:14.076Z,15.40
2022-09-10T21:18:42.333Z,15.30
2022-09-10T21:21:11.550Z,15.20
2022-09-10T21:23:43.067Z,15.10
2022-09-10T21:26:11.188Z,15.00
2022-09-10T21:28:38.949Z,14.80
2022-09-10T21:31:08.007Z,14.70
2022-09-10T21:33:36.134Z,14.60
2022-09-10T21:36:07.979Z,14.40
2022-09-10T21:38:37.977Z,14.30
2022-09-10T21:41:08.375Z,14.20
2022-09-10T21:43:35.716Z,14.20
2022-09-10T21:46:04.570Z,14.10
2022-09-10T21:48:32.588Z,14.00
2022-09-10T21:51:01.063Z,13.90
2022-09-10T21:53:28.208Z,13.80
2022-09-10T21:55:56.146Z,13.80
2022-09-10T21:58:24.538Z,13.80
2022-09-10T22:00:51.375Z,13.70
2022-09-10T22:03:18.178Z,13.70
2022-09-10T22:05:45.332Z,13.70
2022-09-10T22:08:13.234Z,13.70
2022-09-10T22:10:41.637Z,13.70
2022-09-10T22:13:09.096Z,13.70
2022-09-10T22:15:40.186Z,13.70
2022-09-10T22:18:08.282Z,13.70
2022-09-10T22:20:36.472Z,13.70
2022-09-10T22:23:04.464Z,13.80
2022-09-10T22:25:33.218Z,13.70
2022-09-10T22:28:00.033Z,13.70
2022-09-10T22:30:27.848Z,13.70
2022-09-10T22:32:58.340Z,13.70
2022-09-10T22:35:26.694Z,13.70
2022-09-10T22:37:57.259Z,13.60
2022-09-10T22:40:25.338Z,13.60
2022-09-10T22:42:52.947Z,13.60
2022-09-10T22:45:20.739Z,13.60
2022-09-10T22:47:48.395Z,13.60
2022-09-10T22:50:15.471Z,13.60
2022-09-10T22:52:43.728Z,13.60
2022-09-10T22:55:10.779Z,13.50
2022-09-10T22:57:40.079Z,13.50
2022-09-10T23:00:08.123Z,13.50
2022-09-10T23:02:34.953Z,13.50
2022-09-10T23:05:01.961Z,13.40
2022-09-10T23:07:28.736Z,13.50
2022-09-10T23:09:55.867Z,13.50
2022-09-10T23:12:22.685Z,13.50
2022-09-10T23:14:49.487Z,13.60
2022-09-10T23:17:19.576Z,13.60
2022-09-10T23:19:49.169Z,13.70
2022-09-10T23:22:16.003Z,13.70
2022-09-10T23:24:42.811Z,13.60
2022-09-10T23:27:09.643Z,13.60
2022-09-10T23:29:36.766Z,13.60
2022-09-10T23:32:03.595Z,13.50
2022-09-10T23:34:30.435Z,13.60
2022-09-10T23:36:57.227Z,13.60
2022-09-10T23:39:24.877Z,13.70
2022-09-10T23:41:54.892Z,13.70
2022-09-10T23:44:21.731Z,13.80
2022-09-10T23:46:49.024Z,13.80
2022-09-10T23:49:16.558Z,13.70
2022-09-10T23:51:43.402Z,13.70
2022-09-10T23:54:11.495Z,13.60
2022-09-10T23:56:39.854Z,13.40
2022-09-10T23:59:07.065Z,13.30
